Time;durP1;ratioP1;P1;durP2;ratioP2;P2;SDS_P1;SDS_P2;PMS_P1;PMS_P2;Temp;Humidity;BMP_temperature;BMP_pressure;BME280_temperature;BME280_humidity;BME280_pressure;Samples;Min_cycle;Max_cycle;Signal;HPM_P1;HPM_P2
2023/03/14 00:00:00;;;;;;;9.40;1.35;;;28.70;41.40;;;;;;5089066;28;20050;-57
2023/03/14 00:02:27;;;;;;;5.88;1.60;;;28.70;41.10;;;;;;5087660;28;20089;-57
2023/03/14 00:04:56;;;;;;;12.60;1.98;;;28.80;41.40;;;;;;5089157;28;20085;-60
2023/03/14 00:07:24;;;;;;;11.82;1.95;;;28.80;41.00;;;;;;5087215;28;20168;-63
2023/03/14 00:09:51;;;;;;;9.10;1.65;;;28.80;40.80;;;;;;5086223;28;20074;-60
2023/03/14 00:12:17;;;;;;;6.65;1.63;;;28.80;41.00;;;;;;5089012;28;20523;-58
2023/03/14 00:14:44;;;;;;;6.13;1.17;;;28.80;40.70;;;;;;5088539;28;20126;-57
2023/03/14 00:17:11;;;;;;;3.83;1.15;;;28.90;40.40;;;;;;5085663;28;21072;-56
2023/03/14 00:19:37;;;;;;;5.13;1.63;;;28.90;40.60;;;;;;5083838;28;20236;-60
2023/03/14 00:22:04;;;;;;;8.93;1.35;;;28.90;40.10;;;;;;5085449;28;20090;-60
2023/03/14 00:24:30;;;;;;;14.10;2.03;;;28.70;40.00;;;;;;5083787;28;20079;-61
2023/03/14 00:26:56;;;;;;;6.22;1.38;;;28.80;40.20;;;;;;5084824;28;20103;-57
2023/03/14 00:29:23;;;;;;;11.70;1.80;;;28.70;40.10;;;;;;5083090;28;20139;-60
2023/03/14 00:31:49;;;;;;;5.85;1.50;;;28.70;41.00;;;;;;5069098;28;20621;-59
2023/03/14 00:34:16;;;;;;;4.85;1.25;;;28.70;41.00;;;;;;5087535;28;20084;-59
2023/03/14 00:36:42;;;;;;;7.75;1.40;;;28.70;41.20;;;;;;5084478;28;20067;-57
2023/03/14 00:39:08;;;;;;;9.57;1.80;;;28.60;41.40;;;;;;5066282;28;20451;-59
2023/03/14 00:41:35;;;;;;;10.00;1.60;;;28.40;41.70;;;;;;5084911;28;20068;-57
2023/03/14 00:44:01;;;;;;;10.75;1.73;;;28.30;41.50;;;;;;5088758;28;20073;-56
2023/03/14 00:46:28;;;;;;;11.43;1.70;;;28.30;40.80;;;;;;5089626;28;20471;-56
2023/03/14 00:48:54;;;;;;;6.40;1.27;;;28.10;40.30;;;;;;5070645;28;20077;-57
2023/03/14 00:51:21;;;;;;;8.73;1.52;;;28.00;39.80;;;;;;5088643;28;20064;-56
2023/03/14 00:53:47;;;;;;;6.50;1.40;;;27.90;39.60;;;;;;5088371;28;20155;-58
2023/03/14 00:56:14;;;;;;;12.63;2.03;;;27.90;40.00;;;;;;5084712;28;20086;-57
2023/03/14 00:58:41;;;;;;;9.07;1.38;;;27.90;40.10;;;;;;5066845;28;20076;-58
2023/03/14 01:01:09;;;;;;;9.02;1.55;;;27.80;39.70;;;;;;5083888;28;20073;-56
2023/03/14 01:03:36;;;;;;;4.30;1.50;;;27.60;40.10;;;;;;5084228;28;20078;-57
2023/03/14 01:06:13;;;;;;;6.28;1.48;;;27.60;40.30;;;;;;5083898;28;20107;-56
2023/03/14 01:08:40;;;;;;;11.57;2.25;;;27.50;40.70;;;;;;5084959;28;20066;-55
2023/03/14 01:11:09;;;;;;;28.30;18.48;;;27.40;40.70;;;;;;5081748;28;20593;-55
2023/03/14 01:13:36;;;;;;;27.80;18.10;;;27.30;40.80;;;;;;5083961;28;20079;-56
2023/03/14 01:16:07;;;;;;;31.23;19.63;;;27.30;40.70;;;;;;5084929;28;20062;-57
2023/03/14 01:18:37;;;;;;;9.45;1.65;;;27.20;40.90;;;;;;5086950;28;20105;-56
2023/03/14 01:21:17;;;;;;;7.57;1.95;;;27.00;41.30;;;;;;5087836;28;20787;-55
2023/03/14 01:23:43;;;;;;;6.70;1.65;;;26.90;41.30;;;;;;5086601;28;20150;-55
2023/03/14 01:26:13;;;;;;;9.88;1.60;;;26.80;40.40;;;;;;5082200;28;20458;-57
2023/03/14 01:28:40;;;;;;;6.30;1.60;;;26.70;40.50;;;;;;5087250;28;20070;-56
2023/03/14 01:31:09;;;;;;;14.13;2.47;;;26.70;40.50;;;;;;5087429;28;20100;-51
2023/03/14 01:33:37;;;;;;;12.75;1.95;;;26.60;40.60;;;;;;5087943;28;20118;-52
2023/03/14 01:36:04;;;;;;;14.77;2.20;;;26.50;40.00;;;;;;5088513;28;20072;-55
2023/03/14 01:38:35;;;;;;;6.03;1.38;;;26.40;39.30;;;;;;5089568;28;20067;-56
2023/03/14 01:41:02;;;;;;;6.70;1.42;;;26.30;39.00;;;;;;5088248;28;20073;-53
2023/03/14 01:43:29;;;;;;;5.78;1.75;;;26.20;39.00;;;;;;5088121;28;20072;-52
2023/03/14 01:46:05;;;;;;;6.75;1.48;;;26.10;39.10;;;;;;5089516;28;20074;-54
2023/03/14 01:48:46;;;;;;;4.78;1.40;;;26.10;39.50;;;;;;5087940;28;20077;-54
2023/03/14 01:51:20;;;;;;;7.15;1.85;;;26.00;39.90;;;;;;5087823;28;20067;-51
2023/03/14 01:53:48;;;;;;;4.63;1.85;;;26.00;40.60;;;;;;5087534;28;20161;-55
2023/03/14 01:56:17;;;;;;;5.88;1.83;;;25.90;41.40;;;;;;5088747;28;20404;-52
2023/03/14 01:58:47;;;;;;;7.72;1.30;;;25.80;41.40;;;;;;5086995;28;20120;-54
2023/03/14 02:01:17;;;;;;;3.80;1.80;;;25.80;42.10;;;;;;5086919;28;20071;-57
2023/03/14 02:03:54;;;;;;;17.48;2.17;;;25.70;42.30;;;;;;5087946;28;20087;-53
2023/03/14 02:06:28;;;;;;;9.00;1.73;;;25.70;42.70;;;;;;5087384;28;20480;-55
2023/03/14 02:08:55;;;;;;;9.15;2.03;;;25.60;42.90;;;;;;5087192;28;20067;-56
2023/03/14 02:11:26;;;;;;;10.02;2.08;;;25.50;43.50;;;;;;5088172;28;20143;-53
2023/03/14 02:13:53;;;;;;;9.75;1.77;;;25.50;43.80;;;;;;5088268;28;20875;-54
2023/03/14 02:16:20;;;;;;;10.90;2.05;;;25.40;44.00;;;;;;5088949;28;20107;-53
2023/03/14 02:18:46;;;;;;;14.38;2.22;;;25.30;44.10;;;;;;5088188;28;20106;-54
2023/03/14 02:21:32;;;;;;;14.80;2.40;;;25.20;44.20;;;;;;5087771;28;20184;-54
2023/03/14 02:24:04;;;;;;;15.13;2.60;;;25.20;44.60;;;;;;5087965;28;20082;-52
2023/03/14 02:26:45;;;;;;;13.68;2.50;;;25.10;44.80;;;;;;5086842;28;20457;-55
2023/03/14 02:29:12;;;;;;;14.23;2.00;;;25.10;44.80;;;;;;5088015;28;20079;-53
2023/03/14 02:31:39;;;;;;;16.70;2.47;;;25.10;45.70;;;;;;5086147;28;20169;-54
2023/03/14 02:34:06;;;;;;;15.60;2.40;;;25.00;45.10;;;;;;5088067;28;20076;-57
2023/03/14 02:36:32;;;;;;;14.65;2.83;;;24.90;45.30;;;;;;5087651;28;20071;-57
2023/03/14 02:39:18;;;;;;;14.18;2.72;;;24.90;45.40;;;;;;5088011;28;20154;-57
2023/03/14 02:41:45;;;;;;;18.27;2.78;;;24.90;45.70;;;;;;5086463;28;20126;-54
2023/03/14 02:44:12;;;;;;;18.77;3.05;;;24.90;45.60;;;;;;5087535;28;20097;-55
2023/03/14 02:46:38;;;;;;;15.27;2.95;;;24.80;45.40;;;;;;5089995;28;20076;-51
2023/03/14 02:49:10;;;;;;;32.92;3.10;;;24.70;45.70;;;;;;5091423;28;20549;-54
2023/03/14 02:51:38;;;;;;;19.42;3.28;;;24.70;45.80;;;;;;5091293;28;20083;-53
2023/03/14 02:54:04;;;;;;;20.02;3.13;;;24.70;45.90;;;;;;5091736;28;20569;-54
2023/03/14 02:56:30;;;;;;;20.00;3.13;;;24.60;46.00;;;;;;5091579;28;20567;-56
2023/03/14 02:58:57;;;;;;;15.95;3.55;;;24.60;46.10;;;;;;5089753;28;20067;-53
2023/03/14 03:01:24;;;;;;;20.60;3.38;;;24.50;46.10;;;;;;5089588;28;20546;-53
2023/03/14 03:03:51;;;;;;;30.40;3.88;;;24.50;46.40;;;;;;5090172;28;20094;-58
2023/03/14 03:06:17;;;;;;;21.13;3.92;;;24.40;46.40;;;;;;5090630;28;20079;-56
2023/03/14 03:08:43;;;;;;;22.70;5.13;;;24.30;46.70;;;;;;5090355;28;20076;-54
2023/03/14 03:11:10;;;;;;;21.98;4.38;;;24.40;47.00;;;;;;5090436;28;20087;-53
2023/03/14 03:13:37;;;;;;;24.63;3.85;;;24.30;47.30;;;;;;5088927;28;20087;-54
2023/03/14 03:16:04;;;;;;;18.55;2.97;;;24.30;47.70;;;;;;5092184;28;20063;-55
2023/03/14 03:18:31;;;;;;;14.93;2.97;;;24.20;48.20;;;;;;5090318;28;20115;-52
2023/03/14 03:21:03;;;;;;;11.90;2.92;;;24.20;48.50;;;;;;5091302;28;20079;-56
2023/03/14 03:23:30;;;;;;;18.67;3.35;;;24.10;48.80;;;;;;5090739;28;20068;-51
2023/03/14 03:25:56;;;;;;;15.27;2.80;;;24.10;49.20;;;;;;5090899;28;20849;-55
2023/03/14 03:28:23;;;;;;;17.90;3.22;;;24.10;49.40;;;;;;5090128;28;20090;-54
2023/03/14 03:30:49;;;;;;;22.83;2.42;;;24.00;49.60;;;;;;5090826;28;20099;-54
2023/03/14 03:33:15;;;;;;;10.27;2.10;;;24.00;49.90;;;;;;5090251;28;20088;-53
2023/03/14 03:35:47;;;;;;;12.25;2.40;;;23.90;50.00;;;;;;5090918;28;20527;-55
2023/03/14 03:38:14;;;;;;;9.98;3.13;;;23.90;50.10;;;;;;5090803;28;20060;-55
2023/03/14 03:40:40;;;;;;;14.60;3.40;;;23.80;50.10;;;;;;5089984;28;20427;-50
2023/03/14 03:43:07;;;;;;;10.18;3.08;;;23.80;50.20;;;;;;5090525;28;20070;-54
2023/03/14 03:45:33;;;;;;;14.90;3.25;;;23.80;50.20;;;;;;5090797;28;20125;-53
2023/03/14 03:48:00;;;;;;;15.63;3.63;;;23.80;50.40;;;;;;5071852;28;20072;-56
2023/03/14 03:50:26;;;;;;;15.80;4.07;;;23.80;50.60;;;;;;5090260;28;20161;-54
2023/03/14 03:52:52;;;;;;;15.82;4.10;;;23.80;50.60;;;;;;5089982;28;20071;-55
2023/03/14 03:55:19;;;;;;;16.63;3.75;;;23.60;50.70;;;;;;5090236;28;20091;-54
2023/03/14 03:57:45;;;;;;;11.40;4.00;;;23.70;50.90;;;;;;5088929;28;20063;-56
2023/03/14 04:00:12;;;;;;;19.13;4.25;;;23.60;51.10;;;;;;5088326;28;20144;-55
2023/03/14 04:02:38;;;;;;;14.85;3.92;;;23.50;52.10;;;;;;5089456;28;20687;-53
2023/03/14 04:05:05;;;;;;;16.45;4.95;;;23.60;51.40;;;;;;5089126;28;20079;-55
2023/03/14 04:07:33;;;;;;;17.42;5.20;;;23.50;51.40;;;;;;5090178;28;20062;-55
2023/03/14 04:09:59;;;;;;;19.13;5.38;;;23.50;51.60;;;;;;5089999;28;20078;-55
2023/03/14 04:12:25;;;;;;;15.27;5.28;;;23.40;51.60;;;;;;5089260;28;20131;-54
2023/03/14 04:14:52;;;;;;;24.83;5.97;;;23.40;51.80;;;;;;5089382;28;20552;-56
2023/03/14 04:17:18;;;;;;;40.90;6.38;;;23.40;52.00;;;;;;5090654;28;20458;-57
2023/03/14 04:19:45;;;;;;;62.17;7.78;;;23.30;51.90;;;;;;5088963;28;20221;-57
2023/03/14 04:22:11;;;;;;;41.20;7.65;;;23.30;52.40;;;;;;5089553;28;20447;-59
2023/03/14 04:24:37;;;;;;;43.78;8.90;;;23.20;52.30;;;;;;5087382;28;20098;-57
2023/03/14 04:27:04;;;;;;;25.00;6.35;;;23.20;52.30;;;;;;5088705;28;20074;-57
2023/03/14 04:29:30;;;;;;;20.45;5.07;;;23.00;52.10;;;;;;5089458;28;20165;-58
2023/03/14 04:31:57;;;;;;;28.15;5.50;;;23.10;52.70;;;;;;5070830;28;20095;-55
2023/03/14 04:34:23;;;;;;;27.98;5.20;;;23.00;52.00;;;;;;5081662;28;20080;-51
2023/03/14 04:36:49;;;;;;;20.10;4.97;;;23.00;52.20;;;;;;5088750;28;20067;-55
2023/03/14 04:39:16;;;;;;;15.98;4.45;;;23.00;52.00;;;;;;5088232;28;20210;-57
2023/03/14 04:41:42;;;;;;;13.27;3.83;;;22.90;51.80;;;;;;5084888;28;21822;-58
2023/03/14 04:44:08;;;;;;;10.70;3.55;;;23.00;51.90;;;;;;5087206;28;20098;-57
2023/03/14 04:46:35;;;;;;;9.43;2.50;;;22.90;52.40;;;;;;5071423;28;20111;-54
2023/03/14 04:49:01;;;;;;;13.00;2.78;;;23.00;51.80;;;;;;5087453;28;20087;-58
2023/03/14 04:51:28;;;;;;;8.43;2.75;;;23.00;52.00;;;;;;5088412;28;20489;-56
2023/03/14 04:53:55;;;;;;;14.73;2.60;;;22.90;51.90;;;;;;5087364;28;20466;-59
2023/03/14 04:56:21;;;;;;;7.45;2.63;;;22.90;52.10;;;;;;5087972;28;20085;-57
2023/03/14 04:58:48;;;;;;;9.20;3.33;;;22.90;52.10;;;;;;5087731;28;20090;-57
2023/03/14 05:01:14;;;;;;;18.45;3.05;;;22.90;52.10;;;;;;5085485;28;20078;-55
2023/03/14 05:03:41;;;;;;;13.93;3.15;;;22.80;52.00;;;;;;5089566;28;20089;-57
2023/03/14 05:06:07;;;;;;;11.95;3.13;;;22.80;52.10;;;;;;5088921;28;20064;-54
2023/03/14 05:08:34;;;;;;;12.38;3.28;;;22.80;52.10;;;;;;5089469;28;20095;-57
2023/03/14 05:11:00;;;;;;;9.68;3.53;;;22.80;52.30;;;;;;5089417;28;20099;-56
2023/03/14 05:13:27;;;;;;;10.00;2.95;;;22.60;52.30;;;;;;5089325;28;20095;-57
2023/03/14 05:15:55;;;;;;;8.73;3.00;;;22.60;52.40;;;;;;5089797;28;20598;-55
2023/03/14 05:18:21;;;;;;;13.85;3.30;;;22.60;52.40;;;;;;5090006;28;20571;-55
2023/03/14 05:20:51;;;;;;;16.58;3.55;;;22.60;52.50;;;;;;5089431;28;20091;-57
2023/03/14 05:23:18;;;;;;;16.77;3.03;;;22.50;52.50;;;;;;5089135;28;20484;-55
2023/03/14 05:25:44;;;;;;;15.93;2.83;;;22.40;52.60;;;;;;5088037;28;20089;-57
2023/03/14 05:28:11;;;;;;;8.80;2.83;;;22.40;52.80;;;;;;5088949;28;20094;-58
2023/03/14 05:30:37;;;;;;;11.43;3.80;;;22.40;52.60;;;;;;5086994;28;20152;-58
2023/03/14 05:33:03;;;;;;;13.48;3.92;;;22.40;53.20;;;;;;5085303;28;20617;-55
2023/03/14 05:35:30;;;;;;;12.35;3.28;;;22.40;52.70;;;;;;5084296;28;20137;-57
2023/03/14 05:37:56;;;;;;;10.52;3.03;;;22.40;52.90;;;;;;5086178;28;20113;-57
2023/03/14 05:40:23;;;;;;;5.85;2.63;;;22.30;52.70;;;;;;5122850;22;20121;-57
2023/03/14 05:42:49;;;;;;;9.23;3.50;;;22.30;52.90;;;;;;5148323;27;20070;-58
2023/03/14 05:45:16;;;;;;;9.57;3.00;;;22.30;53.00;;;;;;5149132;27;20067;-57
2023/03/14 05:47:42;;;;;;;9.20;2.55;;;22.30;53.50;;;;;;5150088;27;20120;-54
2023/03/14 05:50:09;;;;;;;9.23;2.60;;;22.30;53.20;;;;;;5147987;27;20073;-58
2023/03/14 05:52:36;;;;;;;8.73;2.50;;;22.20;53.30;;;;;;5147803;27;20145;-54
2023/03/14 05:55:03;;;;;;;8.50;2.75;;;22.10;53.50;;;;;;5146474;27;20138;-53
2023/03/14 05:57:30;;;;;;;7.63;2.55;;;22.10;53.80;;;;;;5130798;27;20736;-59
2023/03/14 05:59:56;;;;;;;8.73;2.90;;;22.00;53.80;;;;;;5149389;27;20711;-55
2023/03/14 06:02:22;;;;;;;12.80;3.08;;;22.00;54.10;;;;;;5146458;27;20215;-55
2023/03/14 06:04:49;;;;;;;15.77;2.90;;;21.90;54.20;;;;;;5151178;27;20062;-57
2023/03/14 06:07:15;;;;;;;9.05;2.72;;;21.80;54.40;;;;;;5145662;27;20066;-54
2023/03/14 06:09:42;;;;;;;9.00;2.20;;;21.80;54.80;;;;;;5145222;27;20105;-58
2023/03/14 06:12:08;;;;;;;20.88;10.00;;;21.70;54.70;;;;;;5147945;27;20074;-59
2023/03/14 06:14:34;;;;;;;6.53;1.85;;;21.70;55.10;;;;;;5148878;27;20105;-58
2023/03/14 06:17:01;;;;;;;5.90;2.00;;;21.70;55.20;;;;;;5149437;27;20078;-57
2023/03/14 06:19:27;;;;;;;7.50;2.25;;;21.70;55.30;;;;;;5146695;27;20157;-57
2023/03/14 06:21:54;;;;;;;9.57;2.05;;;21.60;55.30;;;;;;5130056;27;20067;-57
2023/03/14 06:24:20;;;;;;;6.72;2.05;;;21.60;55.60;;;;;;5133296;27;20462;-59
2023/03/14 06:26:47;;;;;;;6.32;1.73;;;21.60;55.50;;;;;;5130000;27;20175;-55
2023/03/14 06:29:13;;;;;;;7.90;2.17;;;21.60;55.80;;;;;;5134061;27;20114;-58
2023/03/14 06:31:39;;;;;;;7.57;2.03;;;21.60;55.70;;;;;;5135110;27;20086;-55
2023/03/14 06:34:06;;;;;;;8.02;2.35;;;21.50;55.90;;;;;;5134840;27;20082;-55
2023/03/14 06:36:32;;;;;;;11.80;2.20;;;21.50;55.90;;;;;;5133728;27;20162;-55
2023/03/14 06:38:59;;;;;;;8.07;1.90;;;21.40;56.10;;;;;;5133108;27;20108;-60
2023/03/14 06:41:26;;;;;;;6.25;1.80;;;21.40;56.30;;;;;;5132558;27;20098;-57
2023/03/14 06:43:53;;;;;;;10.90;2.35;;;21.30;56.40;;;;;;5134679;27;20109;-57
2023/03/14 06:46:19;;;;;;;9.40;2.20;;;21.30;56.60;;;;;;5134563;27;20067;-54
2023/03/14 06:48:46;;;;;;;10.45;2.17;;;21.10;56.80;;;;;;5133732;27;20067;-52
2023/03/14 06:51:12;;;;;;;9.70;2.05;;;21.10;57.00;;;;;;5132824;27;20079;-54
2023/03/14 06:53:39;;;;;;;7.43;1.98;;;21.00;57.10;;;;;;5132598;27;21658;-54
2023/03/14 06:56:06;;;;;;;6.55;2.00;;;21.00;57.10;;;;;;5130056;27;20203;-54
2023/03/14 06:58:32;;;;;;;11.82;1.90;;;21.00;57.20;;;;;;5131339;27;20085;-57
2023/03/14 07:00:58;;;;;;;5.57;1.83;;;21.10;57.20;;;;;;5129563;27;20073;-58
2023/03/14 07:03:25;;;;;;;7.82;1.65;;;21.00;57.00;;;;;;5131149;27;20070;-56
2023/03/14 07:05:52;;;;;;;5.20;1.75;;;21.10;57.30;;;;;;5132763;27;20073;-53
2023/03/14 07:08:19;;;;;;;6.53;2.15;;;21.10;57.20;;;;;;5131046;27;20087;-52
2023/03/14 07:10:45;;;;;;;9.57;2.33;;;21.00;57.30;;;;;;5133546;27;20146;-56
2023/03/14 07:13:11;;;;;;;9.90;4.38;;;21.10;57.70;;;;;;5131754;27;20078;-53
2023/03/14 07:15:38;;;;;;;12.27;5.38;;;21.00;57.60;;;;;;5133308;27;20059;-58
2023/03/14 07:18:05;;;;;;;11.32;6.03;;;21.00;57.70;;;;;;5131654;27;20065;-54
2023/03/14 07:20:32;;;;;;;13.80;6.20;;;20.90;57.80;;;;;;5131044;27;20086;-58
2023/03/14 07:22:59;;;;;;;10.13;4.70;;;20.90;58.00;;;;;;5131669;27;20119;-59
2023/03/14 07:25:26;;;;;;;10.15;3.95;;;20.80;57.70;;;;;;5132161;27;20157;-57
2023/03/14 07:27:53;;;;;;;8.93;2.75;;;20.70;58.20;;;;;;5130643;27;20066;-58
2023/03/14 07:30:19;;;;;;;5.78;1.90;;;20.60;57.90;;;;;;5129393;27;20158;-54
2023/03/14 07:32:45;;;;;;;5.60;2.10;;;20.60;58.00;;;;;;5131088;27;20074;-55
2023/03/14 07:35:12;;;;;;;4.97;1.45;;;20.60;57.90;;;;;;5131631;27;20075;-58
2023/03/14 07:37:38;;;;;;;5.80;1.60;;;20.60;57.80;;;;;;5111555;27;20130;-56
2023/03/14 07:40:06;;;;;;;4.43;1.75;;;20.60;58.10;;;;;;5129727;27;20241;-58
2023/03/14 07:42:33;;;;;;;6.70;1.42;;;20.50;58.20;;;;;;5129421;27;20070;-56
2023/03/14 07:44:59;;;;;;;5.50;1.60;;;20.50;58.10;;;;;;5129867;27;20123;-57
2023/03/14 07:47:25;;;;;;;10.60;1.88;;;20.40;58.40;;;;;;5130910;27;20539;-56
2023/03/14 07:49:52;;;;;;;5.47;1.80;;;20.40;58.50;;;;;;5131078;27;20070;-58
2023/03/14 07:52:18;;;;;;;14.15;3.00;;;20.30;58.60;;;;;;5129668;27;20205;-54
2023/03/14 07:54:45;;;;;;;8.70;2.95;;;20.30;58.90;;;;;;5130881;27;20098;-55
2023/03/14 07:57:11;;;;;;;7.78;2.50;;;20.30;59.20;;;;;;5131518;27;20088;-57
2023/03/14 07:59:37;;;;;;;3.47;1.63;;;20.20;59.70;;;;;;5130164;27;20079;-58
2023/03/14 08:02:09;;;;;;;5.05;1.98;;;20.20;59.30;;;;;;5129130;27;20090;-58
2023/03/14 08:04:36;;;;;;;8.77;1.95;;;20.00;59.30;;;;;;5128849;27;20080;-58
2023/03/14 08:07:02;;;;;;;5.05;1.92;;;20.00;59.50;;;;;;5129921;27;20449;-58
2023/03/14 08:09:29;;;;;;;4.18;1.40;;;20.10;59.20;;;;;;5130199;27;20442;-54
2023/03/14 08:11:55;;;;;;;4.90;1.35;;;20.10;59.40;;;;;;5132771;27;20102;-56
2023/03/14 08:14:25;;;;;;;4.78;1.63;;;20.10;59.30;;;;;;5130162;27;20093;-53
2023/03/14 08:16:52;;;;;;;5.60;1.23;;;20.10;59.30;;;;;;5130173;27;20104;-54
2023/03/14 08:19:18;;;;;;;5.90;1.52;;;20.10;58.90;;;;;;5130571;27;20111;-53
2023/03/14 08:21:45;;;;;;;12.48;1.73;;;20.10;59.20;;;;;;5130649;27;20070;-58
2023/03/14 08:24:11;;;;;;;5.10;1.65;;;20.10;59.10;;;;;;5131828;27;20116;-50
2023/03/14 08:26:38;;;;;;;5.63;1.73;;;20.10;59.30;;;;;;5131524;27;20139;-52
2023/03/14 08:29:04;;;;;;;10.65;1.88;;;20.00;59.30;;;;;;5129181;27;20067;-56
2023/03/14 08:31:31;;;;;;;7.95;1.90;;;20.00;60.00;;;;;;5130640;27;20466;-58
2023/03/14 08:34:01;;;;;;;4.13;1.30;;;19.90;59.90;;;;;;5130512;27;20090;-57
2023/03/14 08:36:28;;;;;;;8.40;2.08;;;19.90;60.20;;;;;;5130244;27;20157;-58
2023/03/14 08:38:54;;;;;;;5.97;1.65;;;19.90;60.10;;;;;;5129456;27;20071;-58
2023/03/14 08:41:21;;;;;;;5.35;1.52;;;19.70;60.10;;;;;;5130897;27;20109;-58
2023/03/14 08:43:47;;;;;;;6.40;1.67;;;19.70;61.00;;;;;;5113696;27;20099;-53
2023/03/14 08:46:14;;;;;;;5.32;1.63;;;19.60;60.90;;;;;;5128165;27;20176;-57
2023/03/14 08:48:40;;;;;;;5.70;1.50;;;19.50;61.60;;;;;;5130825;27;20105;-55
2023/03/14 08:51:13;;;;;;;10.32;1.85;;;19.40;61.00;;;;;;5130874;27;20098;-57
2023/03/14 08:53:40;;;;;;;7.05;2.08;;;19.20;61.90;;;;;;5128137;27;20114;-55
2023/03/14 08:56:09;;;;;;;10.80;1.70;;;19.10;62.00;;;;;;5128705;27;20063;-55
2023/03/14 08:58:37;;;;;;;8.98;2.00;;;19.10;62.40;;;;;;5128436;27;20083;-55
2023/03/14 09:01:05;;;;;;;6.93;1.95;;;19.20;62.40;;;;;;5127356;27;20058;-58
2023/03/14 09:03:32;;;;;;;7.45;1.80;;;19.10;63.70;;;;;;5127514;27;20726;-57
2023/03/14 09:06:05;;;;;;;9.02;1.80;;;19.10;63.10;;;;;;5129196;27;20157;-59
2023/03/14 09:08:32;;;;;;;9.38;2.67;;;19.00;63.20;;;;;;5128342;27;20433;-56
2023/03/14 09:10:58;;;;;;;11.40;1.75;;;19.00;63.30;;;;;;5127574;27;20075;-54
2023/03/14 09:13:25;;;;;;;5.47;1.73;;;19.00;62.90;;;;;;5128507;27;20070;-55
2023/03/14 09:15:56;;;;;;;8.50;1.77;;;18.90;63.20;;;;;;5128779;27;20085;-54
2023/03/14 09:18:22;;;;;;;8.32;1.92;;;18.90;63.40;;;;;;5133967;27;20071;-54
2023/03/14 09:20:49;;;;;;;8.05;1.70;;;18.90;63.50;;;;;;5130215;27;20074;-59
2023/03/14 09:23:16;;;;;;;11.15;1.92;;;18.80;63.90;;;;;;5129344;27;20149;-57
2023/03/14 09:25:43;;;;;;;8.60;1.85;;;18.90;63.50;;;;;;5129967;27;20071;-55
2023/03/14 09:28:09;;;;;;;10.43;1.80;;;18.90;63.60;;;;;;5129710;27;20427;-56
2023/03/14 09:30:35;;;;;;;7.07;1.73;;;18.90;63.50;;;;;;5130992;27;20094;-57
2023/03/14 09:33:02;;;;;;;9.50;1.75;;;18.90;63.60;;;;;;5129276;27;20548;-52
2023/03/14 09:35:28;;;;;;;6.80;1.52;;;18.90;63.20;;;;;;5128102;27;20155;-51
2023/03/14 09:37:55;;;;;;;6.32;1.70;;;18.90;64.30;;;;;;5129814;27;20610;-51
2023/03/14 09:40:23;;;;;;;10.05;1.80;;;18.70;64.50;;;;;;5127995;27;20105;-52
2023/03/14 09:42:54;;;;;;;8.07;2.17;;;18.70;64.60;;;;;;5127457;27;20169;-56
2023/03/14 09:45:36;;;;;;;10.98;2.08;;;18.70;65.40;;;;;;5128496;27;20075;-57
2023/03/14 09:48:04;;;;;;;6.72;2.08;;;18.50;65.60;;;;;;5131616;27;20535;-53
2023/03/14 09:50:53;;;;;;;6.53;2.00;;;18.40;65.60;;;;;;5129088;27;20074;-56
2023/03/14 09:53:26;;;;;;;8.32;1.98;;;18.50;64.80;;;;;;5127082;27;20070;-55
2023/03/14 09:55:55;;;;;;;13.18;2.25;;;18.60;64.00;;;;;;5127621;27;20067;-53
2023/03/14 09:58:23;;;;;;;7.50;2.28;;;18.50;64.20;;;;;;5125970;27;20522;-55
2023/03/14 10:00:53;;;;;;;6.22;1.63;;;18.40;63.70;;;;;;5127410;27;20180;-56
2023/03/14 10:03:22;;;;;;;7.80;1.90;;;18.40;63.80;;;;;;5127533;27;20488;-52
2023/03/14 10:05:48;;;;;;;9.10;2.05;;;18.40;63.40;;;;;;5125348;27;20074;-55
2023/03/14 10:08:15;;;;;;;7.03;1.98;;;18.40;63.70;;;;;;5128222;27;20090;-50
2023/03/14 10:10:42;;;;;;;7.93;1.67;;;18.50;63.40;;;;;;5126791;27;20063;-58
2023/03/14 10:13:25;;;;;;;10.43;2.17;;;18.60;63.10;;;;;;5128837;27;20532;-54
2023/03/14 10:16:04;;;;;;;5.55;1.85;;;18.70;63.00;;;;;;5126546;27;20542;-55
2023/03/14 10:18:34;;;;;;;5.57;1.80;;;18.80;62.90;;;;;;5129935;27;20077;-56
2023/03/14 10:21:20;;;;;;;6.70;1.77;;;18.70;63.90;;;;;;5128240;27;20079;-54
2023/03/14 10:23:47;;;;;;;7.70;2.08;;;18.80;63.50;;;;;;5128336;27;20114;-56
2023/03/14 10:26:18;;;;;;;10.68;2.30;;;18.80;64.20;;;;;;5127178;27;20576;-56
2023/03/14 10:29:03;;;;;;;6.85;2.00;;;18.80;63.00;;;;;;5127827;27;20067;-58
2023/03/14 10:31:51;;;;;;;10.85;2.20;;;18.70;62.50;;;;;;5126806;27;20149;-57
2023/03/14 10:34:23;;;;;;;7.47;2.05;;;18.70;62.60;;;;;;5128328;27;20086;-54
2023/03/14 10:37:08;;;;;;;8.25;1.95;;;18.70;62.70;;;;;;5127757;27;20067;-58
2023/03/14 10:40:05;;;;;;;8.48;2.25;;;18.60;62.70;;;;;;5128733;27;20199;-53
2023/03/14 10:42:41;;;;;;;10.40;2.88;;;18.60;64.20;;;;;;5127418;27;20851;-56
2023/03/14 10:45:25;;;;;;;7.32;2.28;;;18.60;64.00;;;;;;5128154;27;20626;-55
2023/03/14 10:47:52;;;;;;;4.95;2.03;;;18.60;64.10;;;;;;5127481;27;20078;-55
2023/03/14 10:50:28;;;;;;;7.80;2.35;;;18.60;64.10;;;;;;5127414;27;20101;-59
2023/03/14 10:52:56;;;;;;;7.93;2.63;;;18.60;64.00;;;;;;5128283;27;20123;-57
2023/03/14 10:55:25;;;;;;;8.55;2.30;;;18.50;64.20;;;;;;5126358;27;20143;-55
2023/03/14 10:57:52;;;;;;;6.53;2.40;;;18.50;64.40;;;;;;5127688;28;20078;-56
2023/03/14 11:00:22;;;;;;;8.98;2.10;;;18.30;66.20;;;;;;5128377;27;20071;-54
2023/03/14 11:03:12;;;;;;;12.13;2.30;;;18.20;65.90;;;;;;5129017;27;20066;-55
2023/03/14 11:05:57;;;;;;;7.93;2.25;;;18.30;65.90;;;;;;5125985;27;20070;-58
2023/03/14 11:08:27;;;;;;;6.07;2.00;;;18.30;65.10;;;;;;5130783;27;20419;-57
2023/03/14 11:11:25;;;;;;;5.60;1.75;;;18.20;65.60;;;;;;5130677;27;20067;-56
2023/03/14 11:14:00;;;;;;;7.93;2.47;;;18.10;66.90;;;;;;5133349;27;20490;-58
2023/03/14 11:16:53;;;;;;;7.55;2.45;;;18.10;66.40;;;;;;5131039;27;20570;-57
2023/03/14 11:19:43;;;;;;;9.95;1.80;;;18.00;66.10;;;;;;5130549;27;20071;-57
2023/03/14 11:22:28;;;;;;;12.13;2.45;;;18.00;66.00;;;;;;5131820;27;20063;-58
2023/03/14 11:25:13;;;;;;;7.93;2.40;;;17.90;67.00;;;;;;5130245;27;20067;-58
2023/03/14 11:28:05;;;;;;;15.02;2.95;;;17.80;67.00;;;;;;5130415;27;20074;-59
2023/03/14 11:30:40;;;;;;;21.02;2.95;;;17.80;67.20;;;;;;5100271;27;20465;-57
2023/03/14 11:33:46;;;;;;;10.02;2.75;;;17.80;67.00;;;;;;5131212;27;20131;-59
2023/03/14 11:36:35;;;;;;;243.55;16.27;;;17.70;67.60;;;;;;5108500;27;20118;-56
2023/03/14 11:39:03;;;;;;;38.88;4.50;;;17.70;68.70;;;;;;5106102;27;20075;-52
2023/03/14 11:41:40;;;;;;;8.32;3.17;;;17.70;68.10;;;;;;5131069;27;21464;-55
2023/03/14 11:44:37;;;;;;;14.15;4.15;;;17.70;67.50;;;;;;5131332;27;20093;-55
2023/03/14 11:47:18;;;;;;;17.55;5.55;;;17.70;67.40;;;;;;5071665;28;20107;-55
2023/03/14 11:50:12;;;;;;;16.48;5.97;;;17.70;68.10;;;;;;5069614;28;20111;-59
2023/03/14 11:52:46;;;;;;;19.42;5.95;;;17.60;68.00;;;;;;5069591;28;20547;-54
2023/03/14 11:55:34;;;;;;;20.13;5.60;;;17.50;68.70;;;;;;5072812;28;20091;-54
2023/03/14 11:58:31;;;;;;;24.55;7.22;;;17.70;68.80;;;;;;5071576;28;20470;-55
2023/03/14 12:01:02;;;;;;;18.80;6.77;;;17.70;68.50;;;;;;5069594;28;20287;-56
2023/03/14 12:03:57;;;;;;;23.90;7.43;;;17.60;68.10;;;;;;5072750;28;20076;-54
2023/03/14 12:06:55;;;;;;;20.45;8.10;;;17.60;68.50;;;;;;5068838;28;20163;-55
2023/03/14 12:09:23;;;;;;;30.52;7.55;;;17.60;68.30;;;;;;5071803;28;20071;-54
2023/03/14 12:12:03;;;;;;;28.63;8.13;;;17.60;68.20;;;;;;5072836;28;20075;-55
2023/03/14 12:14:33;;;;;;;24.13;8.68;;;17.70;68.30;;;;;;5071292;28;20083;-56
2023/03/14 12:17:07;;;;;;;24.05;10.05;;;17.50;69.40;;;;;;5073887;28;20089;-57
2023/03/14 12:19:42;;;;;;;26.08;11.13;;;17.40;69.30;;;;;;5068019;28;20111;-57
2023/03/14 12:22:31;;;;;;;47.55;11.48;;;17.40;69.20;;;;;;5071773;28;20083;-56
2023/03/14 12:25:25;;;;;;;35.83;11.32;;;17.50;69.30;;;;;;5127284;27;20178;-54
2023/03/14 12:27:55;;;;;;;38.60;11.18;;;17.60;69.00;;;;;;5130979;27;20474;-58
2023/03/14 12:30:29;;;;;;;36.33;10.00;;;17.70;69.40;;;;;;5129632;27;20080;-57
2023/03/14 12:33:17;;;;;;;28.40;9.80;;;17.70;69.20;;;;;;5129751;27;20074;-54
2023/03/14 12:35:51;;;;;;;33.35;8.15;;;17.70;68.80;;;;;;5129392;27;20075;-56
2023/03/14 12:38:38;;;;;;;33.38;8.60;;;17.80;68.30;;;;;;5129384;27;20540;-55
2023/03/14 12:41:11;;;;;;;39.03;10.00;;;17.80;67.90;;;;;;5115020;27;20106;-56
2023/03/14 12:43:37;;;;;;;48.00;10.38;;;17.80;67.90;;;;;;5129891;27;20089;-53
2023/03/14 12:46:24;;;;;;;47.78;10.95;;;17.80;67.80;;;;;;5129234;27;20165;-56
2023/03/14 12:49:00;;;;;;;41.28;10.85;;;17.90;68.10;;;;;;5132831;27;20183;-51
2023/03/14 12:51:43;;;;;;;59.08;12.20;;;17.80;67.80;;;;;;5127951;27;20070;-53
2023/03/14 12:54:39;;;;;;;52.38;11.77;;;17.80;67.50;;;;;;5129468;27;20093;-54